Startpagina
METAR-TAF:

METAR-TAF

Vliegvelden :

Vliegbasis Eindhoven

Eindhoven, Nederland

breedte: 51-27N, lengte: 005-25E, hoogte: 23 m

Actueel weer

Dit bericht is 27 minuten geleden gemaakt, om 13:35 UTC
Wind 8 kt uit het noordoosten, variërend tussen het noorden en het oosten
Temperatuur 20°C
Vochtigheid 37%
Druk 1025 hPa
Zicht 10 km of meer
geen wolken onder 1500 m en geen cumulonimbus

METAR: EHEH 101335Z AUTO 05008KT 360V090 9999 OVC380 20/05 Q1025 BLU 05008KT CAVOK

Tijdstip: 16:02 (14:02 UTC)

Verwachting

Dit bericht is 2 uur en het 26 minuten geleden gemaakt, om 11:36 UTC
Verwachting geldig van 10 om 12 UTC tot 11 om 18 UTC
Wind 10 kt uit het oostnoordoosten
Zicht 10 km of meer
geen wolken onder 1500 m en geen cumulonimbus
Wijzigt naar
van 10 om 23 UTC tot 11 om 01 UTC
Wind 5 kt uit het oosten

TAF: EHEH 101136Z 1012/1118 07010KT CAVOK BECMG 1023/1101 10005KT

Waarnemingen en weersverwachtingen van meer dan 4000 vliegvelden (METAR en TAF).

De beschikbare stations zijn de gele en rode punten op de kaart.

Ga met uw muis naar het station om de naam te zien.

Klik dan om waarnemingen en weersverwachtingen te zien.

kaart wijzigen: klik op de groene knoppen met een zwart kruis om in te zoomen, op de groene knop met een streepje om uit te zoomen of op de groene pijlen voor aangrenzende kaarten.


METAR-TAF: